Time;durP1;ratioP1;P1;durP2;ratioP2;P2;SDS_P1;SDS_P2;PMS_P1;PMS_P2;Temp;Humidity;BMP_temperature;BMP_pressure;BME280_temperature;BME280_humidity;BME280_pressure;Samples;Min_cycle;Max_cycle;Signal;HPM_P1;HPM_P2
2022/11/22 00:01:57;;;;;;;4.32;2.03;;;;;;;;;;5028481;28;20029;-83
2022/11/22 00:04:23;;;;;;;3.80;2.17;;;;;;;;;;5027434;28;20030;-83
2022/11/22 00:06:49;;;;;;;3.63;2.20;;;;;;;;;;5025896;28;20044;-82
2022/11/22 00:09:15;;;;;;;7.95;1.67;;;;;;;;;;5022946;28;20089;-82
2022/11/22 00:11:41;;;;;;;2.55;1.95;;;;;;;;;;5030366;28;20022;-82
2022/11/22 00:14:07;;;;;;;2.38;1.02;;;;;;;;;;5036602;28;20101;-82
2022/11/22 00:16:33;;;;;;;3.42;1.50;;;;;;;;;;5030955;28;20026;-82
2022/11/22 00:18:59;;;;;;;2.63;1.15;;;;;;;;;;5028949;28;20045;-82
2022/11/22 00:21:25;;;;;;;2.50;1.23;;;;;;;;;;5029601;28;20044;-83
2022/11/22 00:23:57;;;;;;;3.10;1.10;;;4.40;99.90;;;;;;5028560;28;20506;-83
2022/11/22 00:26:23;;;;;;;3.50;1.60;;;;;;;;;;5030819;28;20088;-83
2022/11/22 00:28:49;;;;;;;7.32;2.10;;;;;;;;;;5031148;28;20101;-82
2022/11/22 00:31:15;;;;;;;5.35;1.75;;;;;;;;;;5033691;28;20026;-82
2022/11/22 00:33:41;;;;;;;3.10;1.23;;;;;;;;;;5030727;28;20036;-82
2022/11/22 00:36:08;;;;;;;2.90;1.55;;;;;;;;;;5028278;28;20064;-82
2022/11/22 00:38:34;;;;;;;2.55;1.55;;;;;;;;;;5031598;28;21945;-84
2022/11/22 00:40:59;;;;;;;2.78;1.05;;;;;;;;;;5025000;28;20039;-83
2022/11/22 00:43:25;;;;;;;3.47;1.27;;;;;;;;;;5032180;28;20066;-82
2022/11/22 00:45:51;;;;;;;4.95;2.03;;;;;;;;;;5028743;28;20093;-83
2022/11/22 00:48:17;;;;;;;3.70;1.40;;;;;;;;;;5025999;28;20065;-82
2022/11/22 00:50:43;;;;;;;4.57;2.28;;;;;;;;;;5033935;28;20032;-82
2022/11/22 00:53:09;;;;;;;2.45;1.63;;;;;;;;;;5029807;28;20037;-82
2022/11/22 00:55:35;;;;;;;3.50;1.15;;;;;;;;;;5028399;28;20444;-82
2022/11/22 00:58:01;;;;;;;5.88;1.27;;;;;;;;;;5028032;28;20182;-81
2022/11/22 01:00:27;;;;;;;2.80;1.00;;;;;;;;;;5036007;28;20057;-82
2022/11/22 01:02:53;;;;;;;8.10;1.42;;;;;;;;;;5022535;28;20030;-83
2022/11/22 01:05:19;;;;;;;2.33;0.80;;;;;;;;;;5026365;28;20048;-82
2022/11/22 01:07:45;;;;;;;0.88;0.80;;;;;;;;;;5033546;28;20029;-82
2022/11/22 01:10:11;;;;;;;1.45;1.05;;;;;;;;;;5021374;28;20040;-83
2022/11/22 01:12:37;;;;;;;4.72;1.13;;;;;;;;;;5025319;28;20033;-82
2022/11/22 01:15:04;;;;;;;2.55;0.98;;;;;;;;;;5031454;28;20455;-82
2022/11/22 01:17:30;;;;;;;3.47;1.13;;;;;;;;;;5033376;28;20136;-81
2022/11/22 01:19:56;;;;;;;1.45;1.05;;;;;;;;;;5032484;28;20057;-82
2022/11/22 01:22:22;;;;;;;2.40;1.23;;;;;;;;;;5034280;28;20029;-82
2022/11/22 01:24:48;;;;;;;1.83;1.10;;;;;;;;;;5030004;28;20523;-82
2022/11/22 01:27:14;;;;;;;1.98;1.05;;;;;;;;;;5029869;28;20246;-81
2022/11/22 01:29:40;;;;;;;1.40;0.60;;;;;;;;;;5026430;28;20087;-82
2022/11/22 01:32:06;;;;;;;3.47;1.23;;;;;;;;;;5032396;28;20487;-82
2022/11/22 01:34:32;;;;;;;3.10;0.90;;;;;;;;;;5030317;28;20026;-82
2022/11/22 01:36:58;;;;;;;2.50;1.33;;;;;;;;;;5033667;28;20044;-82
2022/11/22 01:39:24;;;;;;;2.13;1.08;;;;;;;;;;5027424;28;20046;-82
2022/11/22 01:41:50;;;;;;;2.33;1.20;;;;;;;;;;5033204;28;20029;-82
2022/11/22 01:44:20;;;;;;;1.75;0.80;;;;;;;;;;5029057;28;20072;-82
2022/11/22 01:46:48;;;;;;;3.67;1.13;;;;;;;;;;5034920;28;20097;-82
2022/11/22 01:49:18;;;;;;;1.88;0.98;;;;;;;;;;5032561;28;20079;-83
2022/11/22 01:51:46;;;;;;;2.75;0.90;;;;;;;;;;5034465;28;20124;-82
2022/11/22 01:54:15;;;;;;;2.78;1.30;;;;;;;;;;5034533;28;20022;-82
2022/11/22 01:56:43;;;;;;;1.15;0.82;;;;;;;;;;5029236;28;20042;-82
2022/11/22 01:59:13;;;;;;;1.83;0.90;;;;;;;;;;5033821;28;20116;-82
2022/11/22 02:01:39;;;;;;;1.77;0.80;;;;;;;;;;5034860;28;20093;-82
2022/11/22 02:04:08;;;;;;;3.53;1.10;;;4.70;99.90;;;;;;5035388;28;20104;-82
2022/11/22 02:06:41;;;;;;;2.65;0.90;;;;;;;;;;5034313;28;20131;-83
2022/11/22 02:09:11;;;;;;;1.50;0.90;;;;;;;;;;5035330;28;20032;-83
2022/11/22 02:11:42;;;;;;;1.92;0.80;;;5.40;99.90;;;;;;5029588;28;20036;-83
2022/11/22 02:14:08;;;;;;;1.38;1.08;;;;;;;;;;5031344;28;20162;-83
2022/11/22 02:16:36;;;;;;;3.30;1.38;;;4.50;99.90;;;;;;5033602;28;22047;-82
2022/11/22 02:19:02;;;;;;;1.25;0.60;;;;;;;;;;5036130;28;20036;-82
2022/11/22 02:21:28;;;;;;;4.85;0.82;;;;;;;;;;5031185;28;20963;-82
2022/11/22 02:24:14;;;;;;;4.53;1.42;;;;;;;;;;5038742;28;20041;-82
2022/11/22 02:26:40;;;;;;;4.28;1.52;;;;;;;;;;5029608;28;20038;-82
2022/11/22 02:29:07;;;;;;;2.50;0.88;;;;;;;;;;5035038;28;20041;-82
2022/11/22 02:31:38;;;;;;;4.53;1.02;;;;;;;;;;5035890;28;20498;-82
2022/11/22 02:34:04;;;;;;;5.18;1.70;;;;;;;;;;5037596;28;20030;-84
2022/11/22 02:36:33;;;;;;;1.48;0.95;;;;;;;;;;5039303;28;20032;-82
2022/11/22 02:38:59;;;;;;;2.60;1.00;;;;;;;;;;5035326;28;20033;-82
2022/11/22 02:41:25;;;;;;;4.35;1.42;;;;;;;;;;5027424;28;20049;-82
2022/11/22 02:43:51;;;;;;;3.45;1.30;;;;;;;;;;5032585;28;20033;-82
2022/11/22 02:46:22;;;;;;;0.95;0.65;;;;;;;;;;5035633;28;20601;-82
2022/11/22 02:48:48;;;;;;;2.33;1.08;;;;;;;;;;5034907;28;20029;-82
2022/11/22 02:51:15;;;;;;;1.42;0.80;;;;;;;;;;5040635;28;20026;-81
2022/11/22 02:53:42;;;;;;;3.42;0.93;;;;;;;;;;5029858;28;20025;-82
2022/11/22 02:56:08;;;;;;;1.98;0.80;;;;;;;;;;5035553;28;20056;-82
2022/11/22 02:58:34;;;;;;;1.42;0.80;;;;;;;;;;5037505;28;20017;-82
2022/11/22 03:01:00;;;;;;;4.32;1.10;;;;;;;;;;5036837;28;20083;-82
2022/11/22 03:03:26;;;;;;;1.05;0.68;;;;;;;;;;5039417;28;20053;-83
2022/11/22 03:05:52;;;;;;;0.90;0.50;;;;;;;;;;5034578;28;20029;-82
2022/11/22 03:08:18;;;;;;;4.07;0.90;;;;;;;;;;5040854;28;20025;-81
2022/11/22 03:10:44;;;;;;;5.55;0.80;;;;;;;;;;5041822;28;20060;-82
2022/11/22 03:13:09;;;;;;;0.85;0.47;;;;;;;;;;5050476;28;20017;-82
2022/11/22 03:15:35;;;;;;;0.90;0.63;;;;;;;;;;5049133;28;20044;-82
2022/11/22 03:18:02;;;;;;;1.15;0.80;;;;;;;;;;5049282;28;20030;-82
2022/11/22 03:20:28;;;;;;;2.50;1.08;;;;;;;;;;5034918;28;20513;-81
2022/11/22 03:22:54;;;;;;;1.52;0.88;;;;;;;;;;5011911;28;20113;-82
2022/11/22 03:25:20;;;;;;;1.70;0.73;;;;;;;;;;5029598;28;20554;-81
2022/11/22 03:27:46;;;;;;;2.97;0.98;;;;;;;;;;5025594;28;20037;-82
2022/11/22 03:30:12;;;;;;;2.88;1.00;;;;;;;;;;5031420;28;20116;-81
2022/11/22 03:32:38;;;;;;;1.92;0.60;;;;;;;;;;5032772;28;20099;-82
2022/11/22 03:35:05;;;;;;;1.55;1.00;;;;;;;;;;5029951;28;20026;-82
2022/11/22 03:37:31;;;;;;;4.38;1.38;;;;;;;;;;5027639;28;20152;-81
2022/11/22 03:39:57;;;;;;;1.27;0.82;;;;;;;;;;5034445;28;20057;-82
2022/11/22 03:42:23;;;;;;;2.20;1.23;;;;;;;;;;5028518;28;20086;-82
2022/11/22 03:44:49;;;;;;;1.20;0.75;;;;;;;;;;5029717;28;20408;-82
2022/11/22 03:47:15;;;;;;;4.53;1.40;;;;;;;;;;5031009;28;20045;-82
2022/11/22 03:49:41;;;;;;;1.80;0.73;;;;;;;;;;5018998;28;20022;-81
2022/11/22 03:52:07;;;;;;;1.23;0.55;;;;;;;;;;5030425;28;20038;-82
2022/11/22 03:54:33;;;;;;;1.63;0.90;;;;;;;;;;5025656;28;20037;-82
2022/11/22 03:56:59;;;;;;;3.88;0.85;;;;;;;;;;5026719;28;20052;-82
2022/11/22 03:59:25;;;;;;;2.58;0.40;;;;;;;;;;5026814;28;20085;-82
2022/11/22 04:01:51;;;;;;;1.65;0.88;;;;;;;;;;5029318;28;20057;-81
2022/11/22 04:04:17;;;;;;;0.70;0.50;;;;;;;;;;5031199;28;20037;-81
2022/11/22 04:06:43;;;;;;;0.65;0.60;;;;;;;;;;5030816;28;20029;-82
2022/11/22 04:09:09;;;;;;;1.00;0.60;;;;;;;;;;5028484;28;20029;-81
2022/11/22 04:11:34;;;;;;;1.65;0.70;;;5.70;99.90;;;;;;5021640;28;20116;-82
2022/11/22 04:16:45;;;;;;;0.73;0.60;;;;;;;;;;5025357;28;20041;-81
2022/11/22 04:19:11;;;;;;;1.17;0.38;;;;;;;;;;5030103;28;20475;-82
2022/11/22 04:21:37;;;;;;;3.58;1.05;;;;;;;;;;5031307;28;20032;-81
2022/11/22 04:26:49;;;;;;;1.52;0.52;;;;;;;;;;5024268;28;20102;-81
2022/11/22 04:29:16;;;;;;;1.27;0.50;;;;;;;;;;5033762;28;20026;-83
2022/11/22 04:34:27;;;;;;;1.48;0.50;;;;;;;;;;5025633;28;20045;-81
2022/11/22 04:36:53;;;;;;;1.55;0.63;;;;;;;;;;5028229;28;20030;-81
2022/11/22 04:39:19;;;;;;;2.58;0.50;;;;;;;;;;5030668;28;20120;-81
2022/11/22 04:41:45;;;;;;;0.98;0.40;;;;;;;;;;5030664;28;20102;-81
2022/11/22 04:46:55;;;;;;;2.15;0.40;;;;;;;;;;5026689;28;20064;-82
2022/11/22 04:49:21;;;;;;;0.68;0.52;;;;;;;;;;5028222;28;20041;-82
2022/11/22 04:54:32;;;;;;;0.95;0.57;;;;;;;;;;5027269;28;20498;-82
2022/11/22 04:56:58;;;;;;;1.90;0.77;;;;;;;;;;5026112;28;20028;-82
2022/11/22 04:59:24;;;;;;;3.00;0.80;;;;;;;;;;5030779;28;20021;-82
2022/11/22 05:01:51;;;;;;;1.38;0.80;;;5.80;99.90;;;;;;5023869;28;20040;-83
2022/11/22 05:04:17;;;;;;;4.43;0.70;;;;;;;;;;5028554;28;21268;-81
2022/11/22 05:06:43;;;;;;;1.85;0.93;;;;;;;;;;5030836;28;20038;-82
2022/11/22 05:09:09;;;;;;;0.98;0.75;;;;;;;;;;5034511;28;20101;-81
2022/11/22 05:11:35;;;;;;;1.17;0.57;;;;;;;;;;5025249;28;20092;-81
2022/11/22 05:14:02;;;;;;;2.58;0.68;;;;;;;;;;5028759;28;20025;-82
2022/11/22 05:16:28;;;;;;;2.08;0.65;;;;;;;;;;5026467;28;20112;-81
2022/11/22 05:19:00;;;;;;;0.70;0.60;;;;;;;;;;5019635;28;20048;-82
2022/11/22 05:21:27;;;;;;;2.22;0.70;;;;;;;;;;5027516;28;20053;-82
2022/11/22 05:23:53;;;;;;;5.13;0.70;;;;;;;;;;5027678;28;20483;-82
2022/11/22 05:26:25;;;;;;;5.13;1.13;;;;;;;;;;5025408;28;20041;-84
2022/11/22 05:28:51;;;;;;;1.98;0.75;;;;;;;;;;5017686;28;20024;-84
2022/11/22 05:31:26;;;;;;;5.38;1.70;;;;;;;;;;5020201;28;20025;-82
2022/11/22 05:33:53;;;;;;;8.73;1.70;;;;;;;;;;5013374;28;20052;-83
2022/11/22 05:36:19;;;;;;;2.40;1.00;;;;;;;;;;5020428;28;20132;-83
2022/11/22 05:38:45;;;;;;;3.13;0.88;;;;;;;;;;5028725;28;20025;-83
2022/11/22 05:41:12;;;;;;;7.70;2.42;;;;;;;;;;5021821;28;20044;-83
2022/11/22 05:43:38;;;;;;;4.07;1.92;;;;;;;;;;5023729;28;20033;-83
2022/11/22 05:46:07;;;;;;;4.70;1.73;;;;;;;;;;5019231;28;20029;-83
2022/11/22 05:48:33;;;;;;;3.10;1.15;;;;;;;;;;5017866;28;20056;-84
2022/11/22 05:51:03;;;;;;;1.20;0.95;;;;;;;;;;5023501;28;20029;-82
2022/11/22 05:53:29;;;;;;;10.77;1.95;;;;;;;;;;5023885;28;20118;-84
2022/11/22 05:55:55;;;;;;;7.38;1.33;;;;;;;;;;5020310;28;20083;-84
2022/11/22 05:58:20;;;;;;;1.67;0.88;;;;;;;;;;5021392;28;20021;-84
2022/11/22 06:00:46;;;;;;;12.23;0.98;;;;;;;;;;5021585;28;20076;-85
2022/11/22 06:03:12;;;;;;;7.65;1.00;;;;;;;;;;5019039;28;20036;-85
2022/11/22 06:05:38;;;;;;;1.58;0.80;;;;;;;;;;5024182;28;20107;-85
2022/11/22 06:08:04;;;;;;;8.80;1.60;;;;;;;;;;5016819;28;20426;-83
2022/11/22 06:10:33;;;;;;;1.67;0.77;;;;;;;;;;5018097;28;20132;-83
2022/11/22 06:12:59;;;;;;;5.03;1.33;;;;;;;;;;5025100;28;20038;-85
2022/11/22 06:15:25;;;;;;;7.07;1.02;;;;;;;;;;5022952;28;20056;-85
2022/11/22 06:17:50;;;;;;;3.20;0.70;;;;;;;;;;5025170;28;20052;-86
2022/11/22 06:20:16;;;;;;;7.78;1.23;;;;;;;;;;5021559;28;20530;-85
2022/11/22 06:22:42;;;;;;;1.70;1.20;;;;;;;;;;5024882;28;20189;-84
2022/11/22 06:25:09;;;;;;;1.73;0.73;;;;;;;;;;5017527;28;20040;-84
2022/11/22 06:27:35;;;;;;;3.67;1.77;;;;;;;;;;5032113;28;20069;-85
2022/11/22 06:30:01;;;;;;;1.42;0.63;;;;;;;;;;5025905;28;20040;-85
2022/11/22 06:32:26;;;;;;;5.55;1.80;;;;;;;;;;5021172;28;20615;-83
2022/11/22 06:34:52;;;;;;;9.13;1.42;;;;;;;;;;5030685;28;20038;-82
2022/11/22 06:37:18;;;;;;;1.77;0.88;;;;;;;;;;5033895;28;20080;-82
2022/11/22 06:39:44;;;;;;;2.20;0.95;;;;;;;;;;5032223;28;20034;-83
2022/11/22 06:42:10;;;;;;;1.35;0.55;;;;;;;;;;5033649;28;20026;-82
2022/11/22 06:44:36;;;;;;;2.25;0.82;;;;;;;;;;5038250;28;20674;-84
2022/11/22 06:47:02;;;;;;;0.85;0.52;;;;;;;;;;5040539;28;20048;-84
2022/11/22 06:49:28;;;;;;;3.47;1.17;;;;;;;;;;5038805;28;20088;-83
2022/11/22 06:51:54;;;;;;;4.63;1.10;;;;;;;;;;5042462;28;20029;-84
2022/11/22 06:54:20;;;;;;;2.13;0.70;;;;;;;;;;5037266;28;20029;-83
2022/11/22 06:56:46;;;;;;;6.05;2.70;;;;;;;;;;5031100;28;20523;-84
2022/11/22 06:59:12;;;;;;;11.15;3.38;;;;;;;;;;5039511;28;20018;-83
2022/11/22 07:01:38;;;;;;;11.65;3.65;;;;;;;;;;5042320;28;20030;-83
2022/11/22 07:04:04;;;;;;;16.80;4.25;;;;;;;;;;5039202;28;20034;-83
2022/11/22 07:06:34;;;;;;;16.02;4.93;;;;;;;;;;5031905;28;20687;-83
2022/11/22 07:09:01;;;;;;;8.65;4.03;;;;;;;;;;5033965;28;20129;-84
2022/11/22 07:11:28;;;;;;;13.80;4.65;;;;;;;;;;5036054;28;20037;-83
2022/11/22 07:13:54;;;;;;;12.15;4.82;;;;;;;;;;5042061;28;20307;-83
2022/11/22 07:16:21;;;;;;;9.65;3.40;;;;;;;;;;5045633;28;20029;-83
2022/11/22 07:18:47;;;;;;;10.43;3.13;;;;;;;;;;5044360;28;20029;-83
2022/11/22 07:21:15;;;;;;;6.00;2.70;;;;;;;;;;5040988;28;20025;-83
2022/11/22 07:23:42;;;;;;;4.43;1.77;;;;;;;;;;5042442;28;20048;-83
2022/11/22 07:26:08;;;;;;;5.75;1.65;;;;;;;;;;5042385;28;20041;-85
2022/11/22 07:28:34;;;;;;;12.63;2.08;;;;;;;;;;5046007;28;20044;-83
2022/11/22 07:31:00;;;;;;;4.63;1.40;;;;;;;;;;5039042;28;20037;-82
2022/11/22 07:33:27;;;;;;;2.30;1.17;;;;;;;;;;5044237;28;20077;-82
2022/11/22 07:35:53;;;;;;;6.00;1.17;;;;;;;;;;5042412;28;20030;-83
2022/11/22 07:38:19;;;;;;;17.85;1.48;;;;;;;;;;5041892;28;20507;-82
2022/11/22 07:40:45;;;;;;;6.78;1.60;;;;;;;;;;5044508;28;20056;-83
2022/11/22 07:43:11;;;;;;;6.35;1.88;;;;;;;;;;5040049;28;20052;-84
2022/11/22 07:45:37;;;;;;;3.88;1.00;;;;;;;;;;5039619;28;20030;-83
2022/11/22 07:48:03;;;;;;;2.30;0.90;;;;;;;;;;5042618;28;20044;-83
2022/11/22 07:50:29;;;;;;;3.28;0.55;;;;;;;;;;5049502;28;20036;-83
2022/11/22 07:52:56;;;;;;;11.93;2.25;;;;;;;;;;5043855;28;20037;-83
2022/11/22 07:55:22;;;;;;;7.72;1.50;;;;;;;;;;5037644;28;20108;-83
2022/11/22 07:57:48;;;;;;;1.60;0.60;;;;;;;;;;5037796;28;20053;-83
2022/11/22 08:00:14;;;;;;;2.50;0.90;;;;;;;;;;5047187;28;20026;-83
2022/11/22 08:02:40;;;;;;;3.97;1.52;;;;;;;;;;5049801;28;20009;-83
2022/11/22 08:05:06;;;;;;;3.35;0.70;;;5.90;99.90;;;;;;5047302;28;20032;-83
2022/11/22 08:07:32;;;;;;;6.72;1.05;;;;;;;;;;5043760;28;20014;-84
2022/11/22 08:09:58;;;;;;;1.55;0.75;;;;;;;;;;5038060;28;20041;-83
2022/11/22 08:12:24;;;;;;;7.72;1.45;;;;;;;;;;5037716;28;20022;-84
2022/11/22 08:14:50;;;;;;;5.22;1.38;;;;;;;;;;5047092;28;20010;-83
2022/11/22 08:17:16;;;;;;;3.95;1.42;;;;;;;;;;5046153;28;20365;-82
2022/11/22 08:19:42;;;;;;;0.90;0.50;;;;;;;;;;5046947;28;20092;-83
2022/11/22 08:22:08;;;;;;;5.60;0.90;;;;;;;;;;5042835;28;20048;-82
2022/11/22 08:24:34;;;;;;;6.53;0.93;;;;;;;;;;5050771;28;20685;-82
2022/11/22 08:27:00;;;;;;;2.88;1.67;;;;;;;;;;5042956;28;20037;-82
2022/11/22 08:29:27;;;;;;;12.30;1.65;;;;;;;;;;5050620;28;20120;-82
2022/11/22 08:31:54;;;;;;;5.45;1.20;;;;;;;;;;5049687;28;20124;-82
2022/11/22 08:34:19;;;;;;;12.20;1.45;;;;;;;;;;5036327;28;20525;-82
2022/11/22 08:36:45;;;;;;;7.00;1.02;;;;;;;;;;5035439;28;20040;-83
2022/11/22 08:39:11;;;;;;;1.67;0.93;;;;;;;;;;5037696;28;20044;-81
2022/11/22 08:41:37;;;;;;;4.95;1.30;;;;;;;;;;5037253;28;20052;-82
2022/11/22 08:44:03;;;;;;;17.60;4.78;;;;;;;;;;5038807;28;20049;-82
2022/11/22 08:46:29;;;;;;;25.95;5.95;;;;;;;;;;5043911;28;20045;-82
2022/11/22 08:48:55;;;;;;;13.15;2.92;;;;;;;;;;5040072;28;20370;-83
2022/11/22 08:51:21;;;;;;;6.38;2.08;;;;;;;;;;5041229;28;20026;-81
2022/11/22 08:53:47;;;;;;;4.15;2.10;;;;;;;;;;5043178;28;20498;-82
2022/11/22 08:56:14;;;;;;;2.72;1.10;;;;;;;;;;5035879;28;20027;-81
2022/11/22 08:58:41;;;;;;;6.78;1.90;;;;;;;;;;5040630;28;20511;-84
2022/11/22 09:01:08;;;;;;;6.40;1.23;;;;;;;;;;5043076;28;20471;-81
2022/11/22 09:03:35;;;;;;;2.83;0.90;;;6.60;99.90;;;;;;5041280;28;20124;-84
2022/11/22 09:06:05;;;;;;;4.55;1.20;;;;;;;;;;5032783;28;20034;-83
2022/11/22 09:08:31;;;;;;;3.38;1.23;;;;;;;;;;5039301;28;20025;-83
2022/11/22 09:11:02;;;;;;;2.65;0.80;;;7.80;99.90;;;;;;5036920;28;20084;-84
2022/11/22 09:13:28;;;;;;;8.05;1.00;;;;;;;;;;5041965;28;20053;-84
2022/11/22 09:15:54;;;;;;;12.15;1.20;;;7.10;99.90;;;;;;5035354;28;20036;-84
2022/11/22 09:18:20;;;;;;;4.90;1.42;;;;;;;;;;5037339;28;20025;-85
2022/11/22 09:20:46;;;;;;;9.38;1.70;;;;;;;;;;5021394;28;20037;-84
2022/11/22 09:23:12;;;;;;;5.95;2.20;;;;;;;;;;5040365;28;20037;-82
2022/11/22 09:25:38;;;;;;;4.90;1.15;;;;;;;;;;5035670;28;20025;-83
2022/11/22 09:28:04;;;;;;;5.45;1.40;;;;;;;;;;5042236;28;20061;-82
2022/11/22 09:30:30;;;;;;;7.30;0.88;;;;;;;;;;5041777;28;20052;-83
2022/11/22 09:32:56;;;;;;;3.75;0.85;;;;;;;;;;5037313;28;20126;-82
2022/11/22 09:35:22;;;;;;;13.05;4.65;;;;;;;;;;5029029;28;20480;-82
2022/11/22 09:37:48;;;;;;;6.18;2.78;;;;;;;;;;5041753;28;20028;-83
2022/11/22 09:40:15;;;;;;;8.82;1.63;;;;;;;;;;5033400;28;20036;-84
2022/11/22 09:42:40;;;;;;;6.40;2.15;;;;;;;;;;5035455;28;20022;-83
2022/11/22 09:45:32;;;;;;;6.00;0.90;;;8.80;99.90;;;;;;5021591;28;20690;-84
2022/11/22 09:48:05;;;;;;;4.07;0.77;;;;;;;;;;5036389;28;20506;-82
2022/11/22 09:50:31;;;;;;;3.60;1.10;;;;;;;;;;5043317;28;20089;-83
2022/11/22 09:53:02;;;;;;;3.20;0.63;;;;;;;;;;5038034;28;20625;-82
2022/11/22 09:55:33;;;;;;;4.13;1.25;;;;;;;;;;5037092;28;20021;-82
2022/11/22 09:58:24;;;;;;;9.73;1.10;;;8.70;99.90;;;;;;5036694;28;20101;-81
2022/11/22 10:00:52;;;;;;;4.72;0.68;;;;;;;;;;5037311;28;20061;-83
2022/11/22 10:03:18;;;;;;;1.67;0.80;;;;;;;;;;5046175;28;20034;-83
2022/11/22 10:05:52;;;;;;;5.10;0.88;;;;;;;;;;5038302;28;20071;-82
2022/11/22 10:08:18;;;;;;;3.17;0.60;;;;;;;;;;5044772;28;20029;-83
2022/11/22 10:10:44;;;;;;;9.13;0.82;;;;;;;;;;5042021;28;20509;-83
2022/11/22 10:13:10;;;;;;;5.75;0.65;;;;;;;;;;5041864;28;20030;-82
2022/11/22 10:15:54;;;;;;;8.07;0.32;;;;;;;;;;5042893;28;20642;-83
2022/11/22 10:18:20;;;;;;;;;;;;;;;;;;5043655;28;20514;-82
2022/11/22 10:20:46;;;;;;;4.70;0.95;;;;;;;;;;5045089;28;19924;-82
2022/11/22 10:23:20;;;;;;;4.30;1.35;;;;;;;;;;5047737;28;20093;-83
2022/11/22 10:25:53;;;;;;;2.92;1.00;;;8.70;99.90;;;;;;5037567;28;20026;-82
2022/11/22 10:28:27;;;;;;;3.95;0.70;;;;;;;;;;5045896;28;20037;-82
2022/11/22 10:31:11;;;;;;;1.42;0.80;;;8.90;99.90;;;;;;5043338;28;20033;-83
2022/11/22 10:33:55;;;;;;;4.20;1.00;;;8.90;99.90;;;;;;5039903;28;20623;-83
2022/11/22 10:36:47;;;;;;;3.47;1.15;;;8.90;99.90;;;;;;5039791;28;20030;-82
2022/11/22 10:39:24;;;;;;;10.60;1.08;;;;;;;;;;5047410;28;20040;-83
2022/11/22 10:41:59;;;;;;;2.17;0.60;;;;;;;;;;5039176;28;20060;-82
2022/11/22 10:44:31;;;;;;;3.97;0.45;;;;;;;;;;5040804;28;20032;-84
2022/11/22 10:47:16;;;;;;;7.75;0.52;;;;;;;;;;5030457;28;20037;-83
2022/11/22 10:49:49;;;;;;;10.70;1.73;;;;;;;;;;5043093;28;20029;-82
2022/11/22 10:52:18;;;;;;;2.65;0.57;;;;;;;;;;5040619;28;20033;-82
2022/11/22 10:54:51;;;;;;;2.17;0.60;;;;;;;;;;5038482;28;20159;-82
2022/11/22 10:57:23;;;;;;;2.50;0.60;;;;;;;;;;5038582;28;20466;-83
2022/11/22 10:59:56;;;;;;;2.05;0.40;;;;;;;;;;5044416;28;20038;-83
2022/11/22 11:03:00;;;;;;;5.53;0.73;;;;;;;;;;5043890;28;20025;-82
2022/11/22 11:05:32;;;;;;;7.57;0.85;;;;;;;;;;4982204;28;20036;-82
2022/11/22 11:07:59;;;;;;;3.05;0.60;;;8.90;99.90;;;;;;4981873;28;20046;-82
2022/11/22 11:10:28;;;;;;;4.18;1.45;;;;;;;;;;5005844;28;20123;-82
2022/11/22 11:13:14;;;;;;;2.58;0.68;;;;;;;;;;5037897;28;20097;-82
2022/11/22 11:16:07;;;;;;;4.28;0.60;;;9.90;99.90;;;;;;5041627;28;20064;-82
2022/11/22 11:18:52;;;;;;;6.22;0.82;;;;;;;;;;5037993;28;20025;-81
2022/11/22 11:21:18;;;;;;;12.43;0.82;;;;;;;;;;5032587;28;20041;-81
2022/11/22 11:23:44;;;;;;;10.90;0.85;;;;;;;;;;5038523;28;20032;-81
2022/11/22 11:26:21;;;;;;;3.95;0.60;;;;;;;;;;5040755;28;20048;-81
2022/11/22 11:28:47;;;;;;;2.45;0.38;;;;;;;;;;5041301;28;20030;-81
2022/11/22 11:31:16;;;;;;;0.55;0.22;;;;;;;;;;5042873;28;20029;-78
2022/11/22 11:33:42;;;;;;;1.65;0.50;;;;;;;;;;5037448;28;20399;-80
2022/11/22 11:36:13;;;;;;;6.38;0.68;;;;;;;;;;5037966;28;20064;-81
2022/11/22 11:38:41;;;;;;;3.83;0.95;;;9.40;99.90;;;;;;5040586;28;20062;-79
2022/11/22 11:41:28;;;;;;;1.13;0.35;;;;;;;;;;5035971;28;20111;-79
2022/11/22 11:43:57;;;;;;;5.35;1.23;;;9.90;99.90;;;;;;5039129;28;20085;-79
2022/11/22 11:46:24;;;;;;;1.75;1.05;;;;;;;;;;5038548;28;20040;-80
2022/11/22 11:48:51;;;;;;;1.77;0.40;;;;;;;;;;5036947;28;20042;-81
2022/11/22 11:51:22;;;;;;;3.40;0.45;;;;;;;;;;5034820;28;20033;-80
2022/11/22 11:54:08;;;;;;;8.30;0.73;;;;;;;;;;5031299;28;20029;-79
2022/11/22 11:56:34;;;;;;;0.30;0.20;;;;;;;;;;5036775;28;20029;-80
2022/11/22 11:59:04;;;;;;;4.32;0.75;;;;;;;;;;5039642;28;20037;-79
2022/11/22 12:01:32;;;;;;;1.33;0.43;;;;;;;;;;5032296;28;20252;-79
2022/11/22 12:04:01;;;;;;;1.88;0.40;;;;;;;;;;5036933;28;20037;-80
2022/11/22 12:06:29;;;;;;;7.22;0.70;;;9.60;99.90;;;;;;5037783;28;20045;-79
2022/11/22 12:08:56;;;;;;;5.65;0.50;;;;;;;;;;5030628;28;20026;-80
2022/11/22 12:11:26;;;;;;;8.00;0.57;;;;;;;;;;5031181;28;20609;-78
2022/11/22 12:14:00;;;;;;;1.42;0.50;;;;;;;;;;5036921;28;20710;-79
2022/11/22 12:16:33;;;;;;;3.03;0.60;;;9.50;99.90;;;;;;5033818;28;20053;-78
2022/11/22 12:19:20;;;;;;;0.77;0.43;;;;;;;;;;5034627;28;20458;-83
2022/11/22 12:22:07;;;;;;;2.85;0.60;;;9.30;99.90;;;;;;5032758;28;20052;-79
2022/11/22 12:24:42;;;;;;;5.47;0.55;;;;;;;;;;5039472;28;20332;-79
2022/11/22 12:27:09;;;;;;;5.00;1.40;;;;;;;;;;5028624;28;20099;-79
2022/11/22 12:29:37;;;;;;;2.90;1.02;;;;;;;;;;5028575;28;20033;-82
2022/11/22 12:32:29;;;;;;;2.85;0.52;;;;;;;;;;5034817;28;20034;-79
2022/11/22 12:35:01;;;;;;;1.58;0.38;;;;;;;;;;5030616;28;20041;-78
2022/11/22 12:37:29;;;;;;;6.18;0.60;;;;;;;;;;5038183;28;20922;-80
2022/11/22 12:39:56;;;;;;;6.05;0.73;;;;;;;;;;5034139;28;20032;-79
2022/11/22 12:42:32;;;;;;;0.98;0.68;;;9.80;99.90;;;;;;5031476;28;20542;-79
2022/11/22 12:45:07;;;;;;;2.13;0.40;;;;;;;;;;5036831;28;20089;-79
2022/11/22 12:47:39;;;;;;;3.25;0.80;;;;;;;;;;5035781;28;20049;-79
2022/11/22 12:50:28;;;;;;;1.00;0.33;;;;;;;;;;5038077;28;20041;-79
2022/11/22 12:53:17;;;;;;;4.70;0.40;;;;;;;;;;5022748;28;20045;-81
2022/11/22 12:55:47;;;;;;;1.88;0.68;;;;;;;;;;5021836;28;20041;-80
2022/11/22 12:58:22;;;;;;;6.82;0.90;;;;;;;;;;5035240;28;20034;-78
2022/11/22 13:01:11;;;;;;;1.90;0.65;;;;;;;;;;5039756;28;20764;-79
2022/11/22 13:03:54;;;;;;;2.90;0.75;;;8.70;99.90;;;;;;5040116;28;20144;-79
2022/11/22 13:06:24;;;;;;;7.47;0.70;;;;;;;;;;5038521;28;20052;-80
2022/11/22 13:09:05;;;;;;;1.70;0.50;;;;;;;;;;5039471;28;20537;-79
2022/11/22 13:11:47;;;;;;;6.53;0.55;;;9.50;99.90;;;;;;5033574;28;20102;-79
2022/11/22 13:14:22;;;;;;;5.38;0.65;;;;;;;;;;5037648;28;20482;-79
2022/11/22 13:16:51;;;;;;;4.25;0.65;;;9.00;99.90;;;;;;5038779;28;20085;-78
2022/11/22 13:19:19;;;;;;;3.15;0.63;;;;;;;;;;5033682;28;20029;-79
2022/11/22 13:22:03;;;;;;;11.30;1.15;;;;;;;;;;5035820;28;20033;-78
2022/11/22 13:24:35;;;;;;;3.67;0.95;;;;;;;;;;5026910;28;20026;-81
2022/11/22 13:27:35;;;;;;;1.95;0.73;;;9.10;99.90;;;;;;5025600;28;20056;-79
2022/11/22 13:30:03;;;;;;;3.08;0.73;;;;;;;;;;5037657;28;20021;-78
2022/11/22 13:32:33;;;;;;;3.92;0.98;;;;;;;;;;5035022;28;20055;-78
2022/11/22 13:35:01;;;;;;;5.50;0.77;;;;;;;;;;5047923;28;20057;-78
2022/11/22 13:37:28;;;;;;;1.90;0.70;;;;;;;;;;5044655;28;20022;-79
2022/11/22 13:39:54;;;;;;;1.08;0.45;;;;;;;;;;5045500;28;20021;-80
2022/11/22 13:42:25;;;;;;;1.52;0.40;;;;;;;;;;5035883;28;20029;-81
2022/11/22 13:44:57;;;;;;;1.27;0.40;;;;;;;;;;5030818;28;20029;-78
2022/11/22 13:47:23;;;;;;;1.88;0.73;;;;;;;;;;5027856;28;20057;-80
2022/11/22 13:49:52;;;;;;;4.45;1.60;;;;;;;;;;5020472;28;20036;-79
2022/11/22 13:52:18;;;;;;;0.82;0.57;;;;;;;;;;5033969;28;20046;-81
2022/11/22 13:54:47;;;;;;;1.73;0.40;;;;;;;;;;5031652;28;20034;-79
2022/11/22 13:57:35;;;;;;;1.35;0.57;;;;;;;;;;5029539;28;20058;-81
2022/11/22 14:00:13;;;;;;;3.60;0.95;;;;;;;;;;5030551;28;20091;-80
2022/11/22 14:02:52;;;;;;;2.88;0.38;;;9.20;99.90;;;;;;5035889;28;20029;-79
2022/11/22 14:05:23;;;;;;;5.55;0.40;;;;;;;;;;5036925;28;20488;-80
2022/11/22 14:07:57;;;;;;;5.88;0.60;;;8.50;99.90;;;;;;5033312;28;20049;-82
2022/11/22 14:10:30;;;;;;;0.20;0.10;;;;;;;;;;5028591;28;20029;-81
2022/11/22 14:13:08;;;;;;;3.08;0.40;;;;;;;;;;5035887;28;20507;-80
2022/11/22 14:15:53;;;;;;;5.75;0.70;;;;;;;;;;5034255;28;20033;-80
2022/11/22 14:18:34;;;;;;;4.95;0.38;;;;;;;;;;5028514;28;20406;-80
2022/11/22 14:21:29;;;;;;;1.42;0.50;;;8.60;99.90;;;;;;5027891;28;20048;-80
2022/11/22 14:24:04;;;;;;;3.15;0.60;;;;;;;;;;4995088;28;20052;-83
2022/11/22 14:26:45;;;;;;;3.42;0.35;;;;;;;;;;5028395;28;20098;-79
2022/11/22 14:29:35;;;;;;;2.72;0.60;;;;;;;;;;5033843;28;20037;-78
2022/11/22 14:32:03;;;;;;;3.65;0.80;;;;;;;;;;5015778;28;20068;-80
2022/11/22 14:34:30;;;;;;;6.82;0.60;;;;;;;;;;5026492;28;20055;-81
2022/11/22 14:37:14;;;;;;;1.83;0.50;;;;;;;;;;5029275;28;21515;-80
2022/11/22 14:39:51;;;;;;;3.78;0.65;;;;;;;;;;5032752;28;20053;-79
2022/11/22 14:42:35;;;;;;;2.45;0.65;;;8.40;99.90;;;;;;5029305;28;20033;-80
2022/11/22 14:45:21;;;;;;;2.50;0.63;;;;;;;;;;5034461;28;20041;-80
2022/11/22 14:48:08;;;;;;;2.47;0.93;;;7.80;99.90;;;;;;5033521;28;20033;-81
2022/11/22 14:50:37;;;;;;;8.40;0.95;;;;;;;;;;5037117;28;20025;-79
2022/11/22 14:53:15;;;;;;;3.05;0.60;;;7.80;99.90;;;;;;5026941;28;20092;-80
2022/11/22 14:55:41;;;;;;;1.95;0.50;;;;;;;;;;5021323;28;20021;-79
2022/11/22 14:58:11;;;;;;;0.93;0.25;;;;;;;;;;5023297;28;20101;-79